Time;durP1;ratioP1;P1;durP2;ratioP2;P2;SDS_P1;SDS_P2;PMS_P1;PMS_P2;Temp;Humidity;BMP_temperature;BMP_pressure;BME280_temperature;BME280_humidity;BME280_pressure;Samples;Min_cycle;Max_cycle;Signal;HPM_P1;HPM_P2
2022/08/19 00:00:24;;;;;;;7.18;4.35;;;21.00;99.90;;;;;;5078237;28;20180;-85
2022/08/19 00:02:50;;;;;;;9.40;4.88;;;21.00;99.90;;;;;;5081397;28;20029;-85
2022/08/19 00:05:18;;;;;;;8.00;4.68;;;21.00;99.90;;;;;;5080567;28;20543;-85
2022/08/19 00:07:44;;;;;;;9.05;5.05;;;21.00;99.90;;;;;;5097760;28;20037;-83
2022/08/19 00:10:13;;;;;;;8.38;4.43;;;21.00;99.90;;;;;;5083079;28;20027;-84
2022/08/19 00:12:39;;;;;;;9.65;4.65;;;21.00;99.90;;;;;;5081537;28;20020;-86
2022/08/19 00:15:11;;;;;;;8.55;4.68;;;21.00;99.90;;;;;;5081288;28;20027;-85
2022/08/19 00:17:37;;;;;;;9.52;4.60;;;20.90;99.90;;;;;;5082281;28;20021;-85
2022/08/19 00:20:04;;;;;;;7.50;4.13;;;20.80;99.90;;;;;;5081341;28;20017;-85
2022/08/19 00:22:29;;;;;;;7.78;4.05;;;21.00;99.90;;;;;;5083123;28;20389;-84
2022/08/19 00:24:55;;;;;;;9.90;4.22;;;20.90;99.90;;;;;;5081527;28;20021;-85
2022/08/19 00:27:23;;;;;;;8.82;3.72;;;20.90;99.90;;;;;;5083511;28;20060;-85
2022/08/19 00:29:51;;;;;;;8.60;4.53;;;20.90;99.90;;;;;;5082067;28;20035;-85
2022/08/19 00:32:17;;;;;;;7.78;3.85;;;20.90;99.90;;;;;;5081117;28;20085;-85
2022/08/19 00:34:43;;;;;;;8.30;4.28;;;20.90;99.90;;;;;;5082211;28;20020;-85
2022/08/19 00:37:09;;;;;;;8.88;4.72;;;20.90;99.90;;;;;;5081287;28;20062;-85
2022/08/19 00:39:34;;;;;;;8.60;4.20;;;20.90;99.90;;;;;;5080892;28;20109;-85
2022/08/19 00:42:00;;;;;;;9.77;4.30;;;20.90;99.90;;;;;;5083213;28;20024;-85
2022/08/19 00:44:28;;;;;;;8.60;4.28;;;20.90;99.90;;;;;;5082604;28;20021;-85
2022/08/19 00:46:58;;;;;;;9.70;4.72;;;20.90;99.90;;;;;;5078136;28;20074;-84
2022/08/19 00:49:29;;;;;;;7.80;3.72;;;20.80;99.90;;;;;;5081339;28;20029;-86
2022/08/19 00:52:08;;;;;;;9.65;4.28;;;20.70;99.90;;;;;;5075794;28;20047;-85
2022/08/19 00:54:36;;;;;;;7.38;4.25;;;20.70;99.90;;;;;;5082313;28;20032;-85
2022/08/19 00:57:05;;;;;;;7.28;3.67;;;20.60;99.90;;;;;;5079145;28;20538;-85
2022/08/19 00:59:32;;;;;;;8.05;4.35;;;20.60;99.90;;;;;;5080820;28;20462;-85
2022/08/19 01:01:58;;;;;;;8.20;3.95;;;20.60;99.90;;;;;;5082680;28;20027;-85
2022/08/19 01:04:24;;;;;;;7.95;3.30;;;20.50;99.90;;;;;;5081181;28;20028;-85
2022/08/19 01:06:49;;;;;;;7.57;3.95;;;20.50;99.90;;;;;;5080009;28;20544;-85
2022/08/19 01:09:15;;;;;;;8.63;4.63;;;20.50;99.90;;;;;;5080755;28;20435;-85
2022/08/19 01:11:44;;;;;;;8.23;4.28;;;20.50;99.90;;;;;;5082020;28;20081;-85
2022/08/19 01:14:10;;;;;;;7.93;4.25;;;20.50;99.90;;;;;;5079208;28;20025;-84
2022/08/19 01:16:38;;;;;;;7.68;4.13;;;20.40;99.90;;;;;;5078422;28;20057;-85
2022/08/19 01:19:15;;;;;;;9.00;4.57;;;20.40;99.90;;;;;;5081121;28;20016;-85
2022/08/19 01:21:48;;;;;;;8.23;4.20;;;20.40;99.90;;;;;;5080509;28;20545;-85
2022/08/19 01:24:14;;;;;;;9.15;4.80;;;20.40;99.90;;;;;;5081973;28;20032;-85
2022/08/19 01:26:42;;;;;;;9.02;4.80;;;20.40;99.90;;;;;;5078580;28;20024;-85
2022/08/19 01:29:09;;;;;;;9.38;4.47;;;20.40;99.90;;;;;;5079610;28;20039;-85
2022/08/19 01:31:34;;;;;;;13.10;5.40;;;20.40;99.90;;;;;;5080214;28;20039;-85
2022/08/19 01:34:02;;;;;;;7.15;3.95;;;20.40;99.90;;;;;;5080701;28;20048;-85
2022/08/19 01:36:35;;;;;;;8.45;4.72;;;20.40;99.90;;;;;;5079721;28;20108;-85
2022/08/19 01:39:04;;;;;;;9.18;4.85;;;20.40;99.90;;;;;;5080226;28;20143;-85
2022/08/19 01:41:30;;;;;;;8.73;4.63;;;20.50;99.90;;;;;;5077773;28;20035;-85
2022/08/19 01:43:56;;;;;;;7.40;4.10;;;20.40;99.90;;;;;;5076024;28;20473;-84
2022/08/19 01:46:22;;;;;;;8.43;4.18;;;20.40;99.90;;;;;;5077982;28;20082;-85
2022/08/19 01:48:48;;;;;;;7.60;4.22;;;20.40;99.90;;;;;;5075358;28;20031;-85
2022/08/19 01:51:14;;;;;;;6.50;3.88;;;20.40;99.90;;;;;;5076851;28;20496;-85
2022/08/19 01:53:40;;;;;;;8.68;4.78;;;20.40;99.90;;;;;;5075563;28;20056;-84
2022/08/19 01:56:07;;;;;;;8.55;4.38;;;20.30;99.90;;;;;;5076960;28;20017;-85
2022/08/19 01:58:40;;;;;;;8.75;4.40;;;20.40;99.90;;;;;;5076342;28;20021;-85
2022/08/19 02:01:06;;;;;;;8.77;4.60;;;20.40;99.90;;;;;;5073048;28;20384;-84
2022/08/19 02:03:32;;;;;;;10.35;4.63;;;20.40;99.90;;;;;;5075260;28;20056;-84
2022/08/19 02:05:59;;;;;;;8.32;4.10;;;20.40;99.90;;;;;;5079229;28;20463;-86
2022/08/19 02:08:29;;;;;;;8.52;4.20;;;20.30;99.90;;;;;;5081002;28;20045;-85
2022/08/19 02:10:56;;;;;;;8.93;5.00;;;20.40;99.90;;;;;;5080029;28;20081;-85
2022/08/19 02:13:22;;;;;;;11.73;5.68;;;20.30;99.90;;;;;;5079486;28;20027;-85
2022/08/19 02:15:48;;;;;;;8.38;5.20;;;20.40;99.90;;;;;;5080669;28;20078;-85
2022/08/19 02:18:14;;;;;;;10.02;4.85;;;20.30;99.90;;;;;;5080542;28;20036;-86
2022/08/19 02:20:41;;;;;;;9.30;4.53;;;20.30;99.90;;;;;;5077744;28;20085;-85
2022/08/19 02:23:08;;;;;;;9.40;4.57;;;20.30;99.90;;;;;;5078418;28;20016;-84
2022/08/19 02:25:34;;;;;;;9.75;5.07;;;20.30;99.90;;;;;;5071516;28;20036;-85
2022/08/19 02:28:00;;;;;;;9.90;5.20;;;20.30;99.90;;;;;;5076530;28;20032;-86
2022/08/19 02:30:26;;;;;;;8.63;4.57;;;20.30;99.90;;;;;;5077418;28;20033;-85
2022/08/19 02:32:52;;;;;;;11.23;5.03;;;20.30;99.90;;;;;;5079447;28;20013;-85
2022/08/19 02:35:19;;;;;;;12.05;5.47;;;20.20;99.90;;;;;;5077827;28;20028;-85
2022/08/19 02:40:34;;;;;;;9.93;4.90;;;20.20;99.90;;;;;;5079641;28;20073;-85
2022/08/19 02:43:05;;;;;;;10.88;5.22;;;20.20;99.90;;;;;;5077986;28;20039;-85
2022/08/19 02:45:32;;;;;;;;;;;20.20;99.90;;;;;;5078169;28;20036;-85
2022/08/19 02:47:57;;;;;;;10.15;5.20;;;20.20;99.90;;;;;;5076513;28;20000;-85
2022/08/19 02:50:23;;;;;;;9.43;5.18;;;19.80;99.90;;;;;;5080656;28;20056;-85
2022/08/19 02:52:49;;;;;;;12.48;6.07;;;20.20;99.90;;;;;;5079020;28;20024;-85
2022/08/19 02:55:15;;;;;;;10.15;5.38;;;20.20;99.90;;;;;;5078629;28;20020;-86
2022/08/19 02:57:41;;;;;;;12.05;5.47;;;20.10;99.90;;;;;;5080205;28;20028;-85
2022/08/19 03:00:12;;;;;;;12.75;6.10;;;20.10;99.90;;;;;;5079055;28;20052;-85
2022/08/19 03:02:38;;;;;;;9.88;5.15;;;20.00;99.90;;;;;;5078734;28;20043;-85
2022/08/19 03:05:07;;;;;;;12.02;5.90;;;20.00;99.90;;;;;;5080753;28;20021;-84
2022/08/19 03:07:32;;;;;;;12.75;5.72;;;19.90;99.90;;;;;;5076059;28;20460;-84
2022/08/19 03:09:58;;;;;;;11.90;6.28;;;19.90;99.90;;;;;;5077829;28;20048;-84
2022/08/19 03:12:24;;;;;;;11.18;5.68;;;19.90;99.90;;;;;;5071400;28;20442;-85
2022/08/19 03:14:51;;;;;;;13.25;5.53;;;19.80;99.90;;;;;;5077421;28;20095;-85
2022/08/19 03:17:17;;;;;;;11.55;5.68;;;19.80;99.90;;;;;;5073836;28;20016;-84
2022/08/19 03:19:43;;;;;;;10.25;4.80;;;19.80;99.90;;;;;;5076095;28;20366;-84
2022/08/19 03:22:09;;;;;;;11.35;5.72;;;19.80;99.90;;;;;;5077627;28;20190;-85
2022/08/19 03:24:34;;;;;;;11.52;6.07;;;19.70;99.90;;;;;;5074140;28;20048;-84
2022/08/19 03:27:00;;;;;;;11.32;5.80;;;19.70;99.90;;;;;;5076901;28;20033;-85
2022/08/19 03:29:28;;;;;;;10.77;5.82;;;19.70;99.90;;;;;;5078805;28;20032;-84
2022/08/19 03:31:54;;;;;;;14.55;6.43;;;19.70;99.90;;;;;;5077915;28;20028;-85
2022/08/19 03:34:26;;;;;;;12.15;5.78;;;19.70;99.90;;;;;;5079560;28;20066;-84
2022/08/19 03:36:54;;;;;;;12.13;6.57;;;19.70;99.90;;;;;;5074752;28;20020;-85
2022/08/19 03:39:20;;;;;;;12.70;5.25;;;19.60;99.90;;;;;;5081511;28;20021;-85
2022/08/19 03:41:48;;;;;;;12.80;6.00;;;19.70;99.90;;;;;;5082502;28;20492;-85
2022/08/19 03:44:19;;;;;;;10.70;5.90;;;19.70;99.90;;;;;;5080518;28;20033;-84
2022/08/19 03:46:50;;;;;;;12.68;5.90;;;19.60;99.90;;;;;;5082973;28;20025;-84
2022/08/19 03:49:16;;;;;;;12.65;6.38;;;19.60;99.90;;;;;;5081547;28;20050;-85
2022/08/19 03:51:43;;;;;;;12.43;6.30;;;19.60;99.90;;;;;;5081497;28;20501;-85
2022/08/19 03:54:12;;;;;;;12.45;6.03;;;19.60;99.90;;;;;;5083727;28;20044;-85
2022/08/19 03:56:40;;;;;;;14.88;6.60;;;19.60;99.90;;;;;;5081896;28;20107;-85
2022/08/19 03:59:09;;;;;;;11.82;6.03;;;19.60;99.90;;;;;;5081009;28;20017;-84
2022/08/19 04:01:35;;;;;;;13.02;5.93;;;19.50;99.90;;;;;;5081187;28;20033;-84
2022/08/19 04:04:01;;;;;;;14.07;6.03;;;19.50;99.90;;;;;;5081396;28;20059;-85
2022/08/19 04:06:32;;;;;;;12.93;6.65;;;19.50;99.90;;;;;;5082815;28;20017;-84
2022/08/19 04:09:01;;;;;;;10.10;5.90;;;19.50;99.90;;;;;;5079872;28;20411;-84
2022/08/19 04:11:42;;;;;;;11.27;6.03;;;19.50;99.90;;;;;;5081743;28;20033;-85
2022/08/19 04:14:14;;;;;;;12.85;6.18;;;19.40;99.90;;;;;;5082116;28;20021;-85
2022/08/19 04:16:40;;;;;;;;;;;19.50;99.90;;;;;;5082215;28;20035;-86
2022/08/19 04:19:06;;;;;;;11.00;6.15;;;19.50;99.90;;;;;;5078453;28;20284;-85
2022/08/19 04:21:33;;;;;;;11.70;5.75;;;19.50;99.90;;;;;;5082017;28;20017;-85
2022/08/19 04:23:59;;;;;;;11.95;5.93;;;19.50;99.90;;;;;;5081680;28;20032;-85
2022/08/19 04:26:28;;;;;;;12.45;6.63;;;19.40;99.90;;;;;;5075099;28;20059;-84
2022/08/19 04:28:54;;;;;;;13.23;6.53;;;19.60;99.90;;;;;;5081865;28;20089;-85
2022/08/19 04:31:26;;;;;;;12.27;6.13;;;19.50;99.90;;;;;;5081348;28;20040;-85
2022/08/19 04:33:54;;;;;;;12.55;6.32;;;19.50;99.90;;;;;;5076891;28;20023;-84
2022/08/19 04:36:22;;;;;;;13.27;7.97;;;19.20;99.90;;;;;;5079511;28;20061;-85
2022/08/19 04:38:50;;;;;;;11.70;6.40;;;19.40;99.90;;;;;;5086248;28;20028;-85
2022/08/19 04:44:02;;;;;;;13.68;7.32;;;19.40;99.90;;;;;;5075771;28;20028;-85
2022/08/19 04:46:31;;;;;;;13.10;6.55;;;19.30;99.90;;;;;;5086452;28;20021;-85
2022/08/19 04:49:01;;;;;;;13.60;7.50;;;19.40;99.90;;;;;;5075555;28;20107;-85
2022/08/19 04:51:26;;;;;;;14.85;6.55;;;19.40;99.90;;;;;;5072008;28;20032;-85
2022/08/19 04:53:53;;;;;;;13.15;6.90;;;19.40;99.90;;;;;;5077962;28;20082;-85
2022/08/19 04:56:26;;;;;;;12.15;6.25;;;19.40;99.90;;;;;;5080155;28;20017;-86
2022/08/19 04:58:53;;;;;;;13.82;7.35;;;19.40;99.90;;;;;;5078731;28;20032;-85
2022/08/19 05:01:22;;;;;;;13.88;6.82;;;19.30;99.90;;;;;;5078081;28;20040;-85
2022/08/19 05:03:48;;;;;;;13.48;6.72;;;19.40;99.90;;;;;;5074163;28;20071;-86
2022/08/19 05:06:16;;;;;;;12.75;7.20;;;19.40;99.90;;;;;;5075724;28;20024;-85
2022/08/19 05:08:43;;;;;;;14.77;7.07;;;19.50;99.90;;;;;;5079058;28;20020;-85
2022/08/19 05:11:34;;;;;;;10.13;6.28;;;19.40;99.90;;;;;;5074786;28;20479;-84
2022/08/19 05:14:00;;;;;;;15.85;7.50;;;19.50;99.90;;;;;;5066268;28;20027;-85
2022/08/19 05:16:29;;;;;;;13.88;7.15;;;19.50;99.90;;;;;;5073744;28;20100;-85
2022/08/19 05:24:26;;;;;;;12.73;6.00;;;19.40;99.90;;;;;;5081615;28;20058;-84
2022/08/19 05:26:56;;;;;;;12.98;6.80;;;19.50;99.90;;;;;;5079203;28;20087;-84
2022/08/19 05:29:24;;;;;;;13.32;6.75;;;19.50;99.90;;;;;;5077175;28;20035;-84
2022/08/19 05:31:50;;;;;;;11.68;6.43;;;19.50;99.90;;;;;;5089940;22;20528;-84
2022/08/19 05:34:21;;;;;;;10.75;5.93;;;19.50;99.90;;;;;;5070928;28;20021;-84
2022/08/19 05:36:49;;;;;;;14.67;7.53;;;19.50;99.90;;;;;;5072451;28;20032;-83
2022/08/19 05:39:19;;;;;;;12.18;6.10;;;19.50;99.90;;;;;;5074259;28;20024;-84
2022/08/19 05:41:47;;;;;;;14.95;6.90;;;19.60;99.90;;;;;;5058269;28;20037;-83
2022/08/19 05:44:19;;;;;;;12.77;6.70;;;19.60;99.90;;;;;;5049121;28;20110;-83
2022/08/19 05:46:52;;;;;;;13.27;7.55;;;19.60;99.90;;;;;;5048439;28;20025;-84
2022/08/19 05:49:18;;;;;;;13.52;7.25;;;19.60;99.90;;;;;;5047834;28;20223;-84
2022/08/19 05:51:44;;;;;;;13.00;6.13;;;19.60;99.90;;;;;;5047419;28;20160;-85
2022/08/19 05:54:16;;;;;;;14.13;7.03;;;19.60;99.90;;;;;;5062292;28;20035;-85
2022/08/19 05:56:42;;;;;;;15.95;6.88;;;19.70;99.90;;;;;;5045659;28;20025;-85
2022/08/19 05:59:11;;;;;;;14.48;7.07;;;19.70;99.90;;;;;;5049718;28;20036;-85
2022/08/19 06:01:41;;;;;;;13.10;7.32;;;19.80;99.90;;;;;;5044161;28;20036;-84
2022/08/19 06:04:07;;;;;;;14.73;7.75;;;19.80;99.90;;;;;;5050000;28;20422;-84
2022/08/19 06:06:35;;;;;;;15.30;7.72;;;19.70;99.90;;;;;;5050506;28;20052;-85
2022/08/19 06:09:07;;;;;;;15.20;7.25;;;19.70;99.90;;;;;;5048758;28;20021;-84
2022/08/19 06:11:32;;;;;;;13.38;6.90;;;19.70;99.90;;;;;;5045202;28;20427;-84
2022/08/19 06:14:02;;;;;;;13.35;7.45;;;19.70;99.90;;;;;;5058708;28;20036;-85
2022/08/19 06:16:29;;;;;;;11.77;6.93;;;19.80;99.90;;;;;;5043360;28;20051;-85
2022/08/19 06:18:56;;;;;;;11.88;6.50;;;19.70;99.90;;;;;;5035278;28;21710;-84
2022/08/19 06:21:24;;;;;;;14.15;7.35;;;19.80;99.90;;;;;;5046741;28;20029;-84
2022/08/19 06:23:51;;;;;;;13.00;7.30;;;19.70;99.90;;;;;;5041992;28;20021;-84
2022/08/19 06:26:18;;;;;;;13.55;7.45;;;19.70;99.90;;;;;;5063365;28;20375;-84
2022/08/19 06:28:46;;;;;;;11.63;7.05;;;19.70;99.90;;;;;;5049475;28;20444;-84
2022/08/19 06:31:17;;;;;;;15.20;8.40;;;19.70;99.90;;;;;;5050599;28;20028;-84
2022/08/19 06:33:44;;;;;;;13.43;6.75;;;19.70;99.90;;;;;;5049923;28;20048;-84
2022/08/19 06:36:17;;;;;;;14.40;7.40;;;19.70;99.90;;;;;;5057462;28;20025;-84
2022/08/19 06:38:43;;;;;;;14.50;7.10;;;19.60;99.90;;;;;;5049360;28;20120;-84
2022/08/19 06:41:09;;;;;;;16.98;7.88;;;19.60;99.90;;;;;;5049466;28;20470;-84
2022/08/19 06:43:35;;;;;;;14.35;7.10;;;19.60;99.90;;;;;;5049353;28;20025;-83
2022/08/19 06:46:03;;;;;;;14.68;7.88;;;19.60;99.90;;;;;;5048578;28;20032;-84
2022/08/19 06:48:29;;;;;;;14.07;7.55;;;19.60;99.90;;;;;;5046655;28;20029;-83
2022/08/19 06:50:55;;;;;;;14.20;7.85;;;19.60;99.90;;;;;;5065566;28;20074;-84
2022/08/19 06:53:21;;;;;;;15.38;8.05;;;19.60;99.90;;;;;;5050199;28;20029;-84
2022/08/19 06:55:47;;;;;;;16.00;8.23;;;19.60;99.90;;;;;;5052480;28;20497;-84
2022/08/19 06:58:12;;;;;;;14.95;8.25;;;19.60;99.90;;;;;;5049479;28;20025;-83
2022/08/19 07:00:39;;;;;;;12.85;7.38;;;19.60;99.90;;;;;;5065813;28;20047;-84
2022/08/19 07:03:05;;;;;;;13.77;7.53;;;19.40;99.90;;;;;;5050303;28;20033;-84
2022/08/19 07:05:30;;;;;;;15.25;7.75;;;19.50;99.90;;;;;;5050087;28;20676;-85
2022/08/19 07:07:57;;;;;;;14.25;8.05;;;19.40;99.90;;;;;;5053959;28;20025;-83
2022/08/19 07:10:22;;;;;;;14.50;7.47;;;19.50;99.90;;;;;;5048677;28;20112;-84
2022/08/19 07:12:49;;;;;;;14.38;7.95;;;19.60;99.90;;;;;;5052226;28;20099;-84
2022/08/19 07:15:16;;;;;;;13.57;7.25;;;19.60;99.90;;;;;;5052921;28;20021;-83
2022/08/19 07:17:43;;;;;;;13.35;7.68;;;19.60;99.90;;;;;;5054605;28;20420;-84
2022/08/19 07:20:09;;;;;;;14.38;7.70;;;19.60;99.90;;;;;;5052586;28;20512;-85
2022/08/19 07:22:38;;;;;;;13.63;8.05;;;19.70;99.90;;;;;;5046398;28;20033;-84
2022/08/19 07:25:07;;;;;;;13.60;7.10;;;19.60;99.90;;;;;;5052566;28;20027;-84
2022/08/19 07:27:34;;;;;;;15.15;7.90;;;19.60;99.90;;;;;;5052230;28;20075;-84
2022/08/19 07:30:00;;;;;;;14.82;7.47;;;19.60;99.90;;;;;;5052730;28;20017;-84
2022/08/19 07:32:26;;;;;;;12.75;6.85;;;19.60;99.90;;;;;;5052761;28;20033;-84
2022/08/19 07:34:52;;;;;;;14.07;7.35;;;19.60;99.90;;;;;;5065482;28;20553;-85
2022/08/19 07:37:17;;;;;;;13.15;7.55;;;19.70;99.90;;;;;;5047968;28;20109;-84
2022/08/19 07:39:43;;;;;;;12.73;7.22;;;19.70;99.90;;;;;;5048962;28;20105;-84
2022/08/19 07:42:10;;;;;;;17.73;7.95;;;19.70;99.90;;;;;;5048955;28;20025;-84
2022/08/19 07:44:37;;;;;;;14.45;7.78;;;19.60;99.90;;;;;;5051157;28;20017;-84
2022/08/19 07:47:03;;;;;;;14.25;7.40;;;19.60;99.90;;;;;;5050978;28;20045;-85
2022/08/19 07:49:29;;;;;;;13.15;7.28;;;19.60;99.90;;;;;;5052526;28;20107;-84
2022/08/19 07:52:01;;;;;;;11.95;6.72;;;19.50;99.90;;;;;;5052689;28;20497;-84
2022/08/19 07:54:30;;;;;;;13.50;7.57;;;19.50;99.90;;;;;;5053795;28;20381;-84
2022/08/19 07:56:56;;;;;;;11.50;6.88;;;19.50;99.90;;;;;;5051972;28;20489;-84
2022/08/19 07:59:23;;;;;;;11.48;6.22;;;19.40;99.90;;;;;;5045668;28;20048;-84
2022/08/19 08:01:49;;;;;;;15.10;7.57;;;19.40;99.90;;;;;;5041836;28;20037;-84
2022/08/19 08:09:45;;;;;;;12.68;6.72;;;19.30;99.90;;;;;;5040920;28;20075;-84
2022/08/19 08:12:15;;;;;;;12.77;7.25;;;19.10;99.90;;;;;;5061251;28;20121;-84
2022/08/19 08:14:48;;;;;;;13.80;7.18;;;19.10;99.90;;;;;;5046652;28;20025;-84
2022/08/19 08:17:16;;;;;;;12.32;6.65;;;19.10;99.90;;;;;;5050039;28;20128;-84
2022/08/19 08:19:42;;;;;;;14.20;7.30;;;19.10;99.90;;;;;;5056122;28;20023;-84
2022/08/19 08:23:21;;;;;;;13.05;7.35;;;19.10;99.90;;;;;;5056655;28;20030;-84
2022/08/19 08:24:57;;;;;;;14.68;7.45;;;19.00;99.90;;;;;;5046675;28;20047;-84
2022/08/19 08:27:23;;;;;;;12.35;7.43;;;19.10;99.90;;;;;;5049125;28;20443;-84
2022/08/19 08:29:49;;;;;;;15.68;7.90;;;19.00;99.90;;;;;;5045366;28;20108;-82
2022/08/19 08:32:15;;;;;;;14.60;7.55;;;19.00;99.90;;;;;;5041665;28;20033;-82
2022/08/19 08:34:42;;;;;;;18.08;7.82;;;19.10;99.90;;;;;;5043181;28;20040;-82
2022/08/19 08:37:07;;;;;;;14.27;7.00;;;19.00;99.90;;;;;;5062597;28;20021;-82
2022/08/19 08:39:33;;;;;;;13.57;6.85;;;19.10;99.90;;;;;;5051469;28;20032;-81
2022/08/19 08:42:23;;;;;;;14.02;7.28;;;19.20;99.90;;;;;;5041382;28;20116;-82
2022/08/19 08:44:58;;;;;;;12.45;7.35;;;19.10;99.90;;;;;;5052585;28;20553;-82
2022/08/19 08:47:26;;;;;;;15.52;8.32;;;19.10;99.90;;;;;;5052403;28;20033;-82
2022/08/19 08:49:59;;;;;;;13.93;7.82;;;19.10;99.90;;;;;;5045132;28;20013;-85
2022/08/19 08:52:35;;;;;;;13.40;7.53;;;19.20;99.90;;;;;;5052525;28;20036;-85
2022/08/19 08:55:08;;;;;;;13.43;7.50;;;19.20;99.90;;;;;;5052109;28;20024;-85
2022/08/19 08:57:48;;;;;;;13.10;7.15;;;19.20;99.90;;;;;;5052542;28;20024;-84
2022/08/19 09:00:21;;;;;;;14.55;7.40;;;19.30;99.90;;;;;;5052679;28;20079;-84
2022/08/19 09:02:47;;;;;;;12.95;7.53;;;19.40;99.90;;;;;;5052593;28;20025;-84
2022/08/19 09:05:13;;;;;;;14.77;8.15;;;19.50;99.90;;;;;;5056099;28;20557;-84
2022/08/19 09:08:10;;;;;;;13.40;7.57;;;19.60;99.90;;;;;;5056397;28;20090;-84
2022/08/19 09:10:57;;;;;;;13.50;7.40;;;19.70;99.90;;;;;;5056539;28;20048;-84
2022/08/19 09:14:05;;;;;;;19.30;7.82;;;19.90;99.90;;;;;;5071532;28;20032;-85
2022/08/19 09:16:31;;;;;;;13.73;7.78;;;20.00;99.90;;;;;;5052419;28;20029;-84
2022/08/19 09:19:02;;;;;;;14.65;6.68;;;20.10;99.90;;;;;;5054199;28;20017;-81
2022/08/19 09:21:28;;;;;;;12.93;7.53;;;20.20;99.90;;;;;;5067489;28;20037;-82
2022/08/19 09:23:54;;;;;;;11.80;7.13;;;20.10;99.90;;;;;;5052438;28;20104;-82
2022/08/19 09:26:22;;;;;;;13.48;7.80;;;20.10;99.90;;;;;;5050561;28;20037;-82
2022/08/19 09:28:50;;;;;;;11.60;6.75;;;20.10;99.90;;;;;;5050970;28;20035;-82
2022/08/19 09:31:19;;;;;;;15.13;7.57;;;20.00;99.90;;;;;;5050346;28;20710;-82
2022/08/19 09:33:45;;;;;;;12.25;7.18;;;20.00;99.90;;;;;;5052106;28;20028;-82
2022/08/19 09:36:13;;;;;;;13.48;7.70;;;19.90;99.90;;;;;;5051136;28;20029;-82
2022/08/19 09:38:41;;;;;;;13.70;7.10;;;19.80;99.90;;;;;;5050334;28;20017;-82
2022/08/19 09:41:12;;;;;;;12.13;7.03;;;20.50;99.90;;;;;;5043337;28;20105;-82
2022/08/19 09:43:38;;;;;;;15.40;7.68;;;19.70;99.90;;;;;;5044855;28;20366;-82
2022/08/19 09:46:06;;;;;;;12.48;7.35;;;19.70;99.90;;;;;;5043901;28;20036;-82
2022/08/19 09:48:35;;;;;;;12.45;6.70;;;19.70;99.90;;;;;;5049062;28;20052;-82
2022/08/19 09:51:11;;;;;;;13.20;7.05;;;19.60;99.90;;;;;;5050222;28;20025;-82
2022/08/19 09:53:37;;;;;;;13.35;7.10;;;19.60;99.90;;;;;;5051834;28;20032;-82
2022/08/19 09:56:05;;;;;;;11.73;6.32;;;19.60;99.90;;;;;;5045628;28;20017;-83
2022/08/19 09:58:32;;;;;;;11.20;6.50;;;19.60;99.90;;;;;;5040988;28;20021;-83
2022/08/19 10:01:00;;;;;;;11.05;6.63;;;19.60;99.90;;;;;;5040812;28;20117;-83
2022/08/19 10:03:27;;;;;;;14.38;7.22;;;19.60;99.90;;;;;;5058326;28;20070;-83
2022/08/19 10:05:53;;;;;;;11.40;6.72;;;19.60;99.90;;;;;;5049939;28;20017;-83
2022/08/19 10:08:23;;;;;;;13.00;6.80;;;19.60;99.90;;;;;;5046900;28;20021;-83
2022/08/19 10:10:50;;;;;;;10.88;6.20;;;19.60;99.90;;;;;;5046898;28;20382;-83
2022/08/19 10:13:17;;;;;;;13.98;7.60;;;19.60;99.90;;;;;;5046120;28;20017;-83
2022/08/19 10:15:44;;;;;;;14.40;7.15;;;19.60;99.90;;;;;;5049244;28;20053;-83
2022/08/19 10:18:09;;;;;;;13.50;6.32;;;19.60;99.90;;;;;;5047557;28;20020;-83
2022/08/19 10:20:35;;;;;;;11.35;6.45;;;19.70;99.90;;;;;;5047218;28;20029;-83
2022/08/19 10:23:02;;;;;;;10.10;5.95;;;19.70;99.90;;;;;;5046282;28;20067;-83
2022/08/19 10:25:29;;;;;;;10.95;6.22;;;19.80;99.90;;;;;;5063829;28;20048;-84
2022/08/19 10:27:55;;;;;;;13.07;6.45;;;19.80;99.90;;;;;;5045322;28;20496;-84
2022/08/19 10:30:22;;;;;;;11.10;5.53;;;19.80;99.90;;;;;;5049422;28;20049;-84
2022/08/19 10:32:50;;;;;;;11.73;6.20;;;19.80;99.90;;;;;;5049529;28;20024;-84
2022/08/19 10:35:17;;;;;;;10.15;5.43;;;19.80;99.90;;;;;;5049469;28;20075;-83
2022/08/19 10:37:42;;;;;;;11.88;6.20;;;19.80;99.90;;;;;;5042160;28;20024;-84
2022/08/19 10:40:10;;;;;;;11.93;6.40;;;19.90;99.90;;;;;;5039759;28;20018;-84
2022/08/19 10:42:36;;;;;;;8.60;5.22;;;19.90;99.90;;;;;;5056334;28;20058;-84
2022/08/19 10:45:03;;;;;;;10.98;6.35;;;20.00;99.90;;;;;;5062440;28;20029;-84
2022/08/19 10:47:29;;;;;;;11.63;6.43;;;20.10;99.90;;;;;;5046164;28;20130;-83
2022/08/19 10:52:45;;;;;;;10.05;5.78;;;20.20;99.90;;;;;;5048597;28;20112;-83
2022/08/19 10:57:55;;;;;;;11.48;5.88;;;20.30;99.90;;;;;;5039555;28;20091;-83
2022/08/19 11:00:22;;;;;;;9.18;5.10;;;20.40;99.90;;;;;;5044121;28;20477;-83
2022/08/19 11:02:49;;;;;;;9.98;5.95;;;20.50;99.90;;;;;;5047203;28;20025;-83
2022/08/19 11:05:15;;;;;;;8.57;5.55;;;20.60;99.90;;;;;;5065606;28;20029;-82
2022/08/19 11:07:41;;;;;;;10.38;5.40;;;20.60;99.90;;;;;;5048259;28;20028;-83
2022/08/19 11:10:09;;;;;;;10.55;5.65;;;20.60;99.90;;;;;;5046201;28;20029;-82
2022/08/19 11:12:39;;;;;;;9.38;5.63;;;20.60;99.90;;;;;;5047646;28;20032;-83
2022/08/19 11:15:10;;;;;;;9.60;5.75;;;20.60;99.90;;;;;;5044658;28;20020;-83
2022/08/19 11:17:43;;;;;;;10.90;5.00;;;20.50;99.90;;;;;;5048196;28;20018;-85
2022/08/19 11:20:14;;;;;;;9.60;5.10;;;20.50;99.90;;;;;;5061001;28;20132;-82
2022/08/19 11:22:41;;;;;;;7.82;4.88;;;20.40;99.90;;;;;;5049092;28;20084;-82
2022/08/19 11:25:08;;;;;;;7.63;4.00;;;20.30;99.90;;;;;;5048626;28;20035;-82
2022/08/19 11:27:44;;;;;;;8.23;4.60;;;20.30;99.90;;;;;;5065563;28;20028;-82
2022/08/19 11:30:12;;;;;;;6.97;4.13;;;20.30;99.90;;;;;;5049241;28;20025;-82
2022/08/19 11:32:40;;;;;;;7.03;4.22;;;20.30;99.90;;;;;;5100417;22;20067;-84
2022/08/19 11:35:06;;;;;;;8.95;4.45;;;20.30;99.90;;;;;;5095460;28;20016;-84
2022/08/19 11:37:37;;;;;;;8.10;3.85;;;20.30;99.90;;;;;;5096203;28;20012;-85
2022/08/19 11:40:04;;;;;;;8.05;4.80;;;20.40;99.90;;;;;;5097627;28;20016;-85
2022/08/19 11:45:14;;;;;;;7.25;4.47;;;20.50;99.90;;;;;;5079194;28;20040;-85
2022/08/19 11:47:39;;;;;;;8.25;4.63;;;20.60;99.90;;;;;;5076519;28;20435;-85
2022/08/19 11:50:05;;;;;;;9.00;5.30;;;20.70;99.90;;;;;;5077343;28;20047;-85
2022/08/19 11:52:31;;;;;;;9.38;5.00;;;20.80;99.90;;;;;;5071905;28;20031;-85
2022/08/19 11:54:57;;;;;;;9.27;5.55;;;20.80;99.90;;;;;;5076137;28;20047;-85
2022/08/19 11:57:23;;;;;;;8.85;5.32;;;20.80;99.90;;;;;;5070781;28;20111;-85
2022/08/19 11:59:51;;;;;;;9.45;5.45;;;20.70;99.90;;;;;;5078397;28;20017;-85
2022/08/19 12:02:17;;;;;;;8.90;5.75;;;20.70;99.90;;;;;;5078922;28;20063;-85
2022/08/19 12:04:42;;;;;;;11.88;6.38;;;20.80;99.90;;;;;;5081857;28;20028;-85
2022/08/19 12:07:08;;;;;;;10.77;6.15;;;20.60;99.90;;;;;;5082009;28;20051;-85
2022/08/19 12:09:34;;;;;;;11.40;6.05;;;20.60;99.90;;;;;;5080886;28;20036;-83
2022/08/19 12:12:01;;;;;;;12.25;6.78;;;20.60;99.90;;;;;;5081686;28;20126;-84
2022/08/19 12:14:29;;;;;;;12.15;7.10;;;20.60;99.90;;;;;;5072560;28;20056;-84
2022/08/19 12:16:55;;;;;;;11.48;7.07;;;20.70;99.90;;;;;;5088826;28;20035;-84
2022/08/19 12:19:21;;;;;;;12.02;7.10;;;20.70;99.90;;;;;;5080496;28;20025;-83
2022/08/19 12:21:47;;;;;;;14.57;7.20;;;20.70;99.90;;;;;;5081905;28;20062;-84
2022/08/19 12:24:13;;;;;;;13.35;8.20;;;20.60;99.90;;;;;;5080666;28;20032;-83
2022/08/19 12:26:39;;;;;;;13.30;7.93;;;20.40;99.90;;;;;;5075580;28;20016;-84
2022/08/19 12:29:05;;;;;;;13.23;8.40;;;20.40;99.90;;;;;;5081774;28;20040;-83
2022/08/19 12:31:31;;;;;;;13.98;7.93;;;20.40;99.90;;;;;;5081253;28;20044;-84
2022/08/19 12:33:57;;;;;;;15.85;8.77;;;20.40;99.90;;;;;;5078044;28;20047;-84
2022/08/19 12:36:24;;;;;;;15.25;7.78;;;20.30;99.90;;;;;;5080895;28;20477;-84
2022/08/19 12:38:51;;;;;;;12.65;7.57;;;20.40;99.90;;;;;;5079011;28;20021;-85
2022/08/19 12:41:18;;;;;;;16.73;8.60;;;20.30;99.90;;;;;;5080563;28;20101;-84
2022/08/19 12:43:44;;;;;;;14.93;7.93;;;20.30;99.90;;;;;;5080270;28;20040;-85
2022/08/19 12:46:10;;;;;;;15.77;9.43;;;20.20;99.90;;;;;;5079877;28;20020;-84
2022/08/19 12:48:39;;;;;;;15.02;9.02;;;20.10;99.90;;;;;;5081641;28;20036;-84
2022/08/19 12:51:09;;;;;;;17.95;8.57;;;20.10;99.90;;;;;;5075923;28;20023;-87
2022/08/19 12:53:38;;;;;;;13.73;7.95;;;20.10;99.90;;;;;;5074840;28;20381;-87
2022/08/19 12:56:05;;;;;;;16.17;8.93;;;20.20;99.90;;;;;;5074108;28;20020;-86
2022/08/19 12:58:32;;;;;;;15.88;8.68;;;20.10;99.90;;;;;;5072397;28;20028;-85
2022/08/19 13:00:57;;;;;;;17.17;8.85;;;20.00;99.90;;;;;;5072945;28;20032;-86
2022/08/19 13:03:28;;;;;;;17.00;9.15;;;20.50;99.90;;;;;;5073041;28;20029;-86
2022/08/19 13:05:54;;;;;;;17.27;8.85;;;20.10;99.90;;;;;;5073116;28;20024;-86
2022/08/19 13:08:20;;;;;;;17.58;9.75;;;20.10;99.90;;;;;;5072852;28;20028;-86